createdAt,value
2023-12-02T00:00:15.180Z,-1.30
2023-12-02T00:02:41.942Z,-1.30
2023-12-02T00:05:09.809Z,-1.30
2023-12-02T00:07:36.670Z,-1.40
2023-12-02T00:10:03.920Z,-1.40
2023-12-02T00:12:30.706Z,-1.40
2023-12-02T00:14:57.432Z,-1.50
2023-12-02T00:17:24.174Z,-1.50
2023-12-02T00:19:50.938Z,-1.60
2023-12-02T00:22:17.611Z,-1.50
2023-12-02T00:24:44.571Z,-1.50
2023-12-02T00:27:11.301Z,-1.40
2023-12-02T00:29:38.176Z,-1.40
2023-12-02T00:32:05.354Z,-1.30
2023-12-02T00:34:32.067Z,-1.30
2023-12-02T00:36:58.770Z,-1.20
2023-12-02T00:39:25.652Z,-1.30
2023-12-02T00:41:52.450Z,-1.30
2023-12-02T00:44:20.792Z,-1.30
2023-12-02T00:46:47.870Z,-1.30
2023-12-02T00:49:14.800Z,-1.30
2023-12-02T00:51:41.623Z,-1.30
2023-12-02T00:54:08.918Z,-1.30
2023-12-02T00:56:35.679Z,-1.40
2023-12-02T00:59:02.353Z,-1.30
2023-12-02T01:01:29.053Z,-1.30
2023-12-02T01:03:56.087Z,-1.30
2023-12-02T01:06:22.803Z,-1.30
2023-12-02T01:08:49.496Z,-1.20
2023-12-02T01:11:16.211Z,-1.20
2023-12-02T01:13:42.939Z,-1.20
2023-12-02T01:16:10.405Z,-1.20
2023-12-02T01:18:37.155Z,-1.20
2023-12-02T01:21:04.863Z,-1.30
2023-12-02T01:23:31.546Z,-1.40
2023-12-02T01:25:58.239Z,-1.40
2023-12-02T01:28:25.693Z,-1.40
2023-12-02T01:30:52.352Z,-1.40
2023-12-02T01:33:19.234Z,-1.30
2023-12-02T01:35:46.193Z,-1.20
2023-12-02T01:38:12.871Z,-1.20
2023-12-02T01:40:39.540Z,-1.20
2023-12-02T01:43:06.251Z,-1.10
2023-12-02T01:45:33.025Z,-1.10
2023-12-02T01:48:01.240Z,-1.10
2023-12-02T01:50:29.373Z,-1.10
2023-12-02T01:52:56.188Z,-1.10
2023-12-02T01:55:23.059Z,-1.20
2023-12-02T01:57:49.733Z,-1.20
2023-12-02T02:00:16.790Z,-1.30
2023-12-02T02:02:43.585Z,-1.30
2023-12-02T02:05:10.398Z,-1.30
2023-12-02T02:07:37.142Z,-1.20
2023-12-02T02:10:04.237Z,-1.30
2023-12-02T02:12:31.088Z,-1.30
2023-12-02T02:14:57.914Z,-1.30
2023-12-02T02:17:24.803Z,-1.30
2023-12-02T02:19:51.597Z,-1.20
2023-12-02T02:22:18.390Z,-1.20
2023-12-02T02:24:45.330Z,-1.10
2023-12-02T02:27:12.034Z,-1.10
2023-12-02T02:29:38.765Z,-1.10
2023-12-02T02:32:05.956Z,-1.00
2023-12-02T02:34:32.949Z,-1.00
2023-12-02T02:36:59.657Z,-1.00
2023-12-02T02:39:26.458Z,-1.00
2023-12-02T02:41:53.166Z,-1.00
2023-12-02T02:44:19.862Z,-1.00
2023-12-02T02:46:46.597Z,-1.00
2023-12-02T02:49:13.473Z,-1.00
2023-12-02T02:51:41.505Z,-1.00
2023-12-02T02:54:08.246Z,-1.00
2023-12-02T02:56:35.020Z,-1.10
2023-12-02T02:59:01.839Z,-1.00
2023-12-02T03:01:28.558Z,-1.10
2023-12-02T03:03:55.281Z,-1.10
2023-12-02T03:06:22.597Z,-1.10
2023-12-02T03:08:49.266Z,-1.10
2023-12-02T03:11:15.923Z,-1.10
2023-12-02T03:13:43.249Z,-1.10
2023-12-02T03:16:10.473Z,-1.10
2023-12-02T03:18:37.192Z,-1.10
2023-12-02T03:21:04.028Z,-1.00
2023-12-02T03:23:30.694Z,-0.90
2023-12-02T03:25:57.461Z,-0.90
2023-12-02T03:28:24.385Z,-1.00
2023-12-02T03:30:51.358Z,-0.90
2023-12-02T03:33:18.123Z,-0.90
2023-12-02T03:35:44.891Z,-0.90
2023-12-02T03:38:11.650Z,-0.90
2023-12-02T03:40:38.749Z,-0.90
2023-12-02T03:43:05.477Z,-0.80
2023-12-02T03:45:32.191Z,-0.70
2023-12-02T03:47:59.152Z,-0.70
2023-12-02T03:50:26.003Z,-0.70
2023-12-02T03:52:52.690Z,-0.80
2023-12-02T03:55:19.685Z,-0.80
2023-12-02T03:57:47.135Z,-0.80
2023-12-02T04:00:20.297Z,-0.70
2023-12-02T04:02:47.455Z,-0.70
2023-12-02T04:05:16.865Z,-0.70
2023-12-02T04:07:44.029Z,-0.70
2023-12-02T04:10:11.110Z,-0.70
2023-12-02T04:12:37.846Z,-0.80
2023-12-02T04:15:05.697Z,-0.70
2023-12-02T04:17:32.519Z,-0.70
2023-12-02T04:19:59.342Z,-0.70
2023-12-02T04:22:26.018Z,-0.60
2023-12-02T04:24:52.700Z,-0.70
2023-12-02T04:27:19.461Z,-0.70
2023-12-02T04:29:46.244Z,-0.70
2023-12-02T04:32:13.040Z,-0.70
2023-12-02T04:34:39.795Z,-0.80
2023-12-02T04:37:07.056Z,-0.80
2023-12-02T04:39:34.558Z,-0.80
2023-12-02T04:42:01.487Z,-0.90
2023-12-02T04:44:28.275Z,-0.80
2023-12-02T04:46:55.078Z,-0.80
2023-12-02T04:49:21.852Z,-0.90
2023-12-02T04:51:48.887Z,-0.90
2023-12-02T04:54:15.786Z,-1.00
2023-12-02T04:56:42.596Z,-1.00
2023-12-02T04:59:09.275Z,-1.10
2023-12-02T05:01:36.119Z,-1.00
2023-12-02T05:04:02.908Z,-0.90
2023-12-02T05:06:29.910Z,-0.90
2023-12-02T05:08:56.667Z,-0.90
2023-12-02T05:11:23.379Z,-1.00
2023-12-02T05:13:51.914Z,-0.90
2023-12-02T05:16:19.856Z,-0.90
2023-12-02T05:18:46.920Z,-0.90
2023-12-02T05:21:16.745Z,-0.80
2023-12-02T05:23:43.450Z,-0.90
2023-12-02T05:26:10.177Z,-0.90
2023-12-02T05:28:38.683Z,-1.00
2023-12-02T05:31:06.115Z,-1.00
2023-12-02T05:33:32.992Z,-1.00
2023-12-02T05:35:59.787Z,-1.00
2023-12-02T05:38:26.546Z,-0.90
2023-12-02T05:40:54.062Z,-0.80
2023-12-02T05:43:20.714Z,-0.90
2023-12-02T05:45:50.177Z,-0.80
2023-12-02T05:48:17.186Z,-0.80
2023-12-02T05:50:44.068Z,-0.80
2023-12-02T05:53:10.857Z,-0.90
2023-12-02T05:55:38.054Z,-0.90
2023-12-02T05:58:04.731Z,-0.90
2023-12-02T06:00:31.422Z,-0.90
2023-12-02T06:02:58.767Z,-0.90
2023-12-02T06:05:25.511Z,-0.90
2023-12-02T06:07:52.233Z,-1.10
2023-12-02T06:10:19.200Z,-1.00
2023-12-02T06:12:47.350Z,-1.00
2023-12-02T06:15:14.118Z,-0.90
2023-12-02T06:17:41.102Z,-0.90
2023-12-02T06:20:10.415Z,-0.90
2023-12-02T06:22:37.102Z,-0.90
2023-12-02T06:25:04.433Z,-0.90
2023-12-02T06:27:31.097Z,-1.00
2023-12-02T06:29:58.078Z,-1.00
2023-12-02T06:32:24.800Z,-1.00
2023-12-02T06:34:51.803Z,-1.00
2023-12-02T06:37:18.560Z,-1.00
2023-12-02T06:39:45.301Z,-1.10
2023-12-02T06:42:12.069Z,-1.00
2023-12-02T06:44:39.192Z,-1.10
2023-12-02T06:47:06.183Z,-1.20
2023-12-02T06:49:33.037Z,-1.10
2023-12-02T06:51:59.858Z,-1.10
2023-12-02T06:54:26.595Z,-1.10
2023-12-02T06:56:53.335Z,-1.10
2023-12-02T06:59:20.017Z,-1.10
2023-12-02T07:01:47.263Z,-1.10
2023-12-02T07:04:13.985Z,-1.20
2023-12-02T07:06:41.706Z,-1.20
2023-12-02T07:09:09.391Z,-1.10
2023-12-02T07:11:36.273Z,-1.10
2023-12-02T07:14:04.367Z,-1.10
2023-12-02T07:16:31.247Z,-1.10
2023-12-02T07:18:58.721Z,-1.20
2023-12-02T07:21:25.633Z,-1.20
2023-12-02T07:23:53.005Z,-1.20
2023-12-02T07:26:20.482Z,-1.20
2023-12-02T07:28:47.220Z,-1.20
2023-12-02T07:31:14.883Z,-1.20
2023-12-02T07:33:42.219Z,-1.20
2023-12-02T07:36:09.708Z,-1.10
2023-12-02T07:38:36.674Z,-1.10
2023-12-02T07:41:03.421Z,-1.10
2023-12-02T07:43:30.816Z,-1.10
2023-12-02T07:45:58.371Z,-1.10
2023-12-02T07:48:25.157Z,-1.10
2023-12-02T07:50:51.930Z,-1.10
2023-12-02T07:53:18.775Z,-1.00
2023-12-02T07:55:47.118Z,-1.00
2023-12-02T07:58:14.569Z,-1.00
2023-12-02T08:00:41.245Z,-1.00
2023-12-02T08:03:07.906Z,-1.00
2023-12-02T08:08:04.639Z,-1.10
2023-12-02T08:10:31.696Z,-1.10
2023-12-02T08:12:58.346Z,-1.00
2023-12-02T08:15:25.055Z,-0.90
2023-12-02T08:17:51.822Z,-0.90
2023-12-02T08:20:18.787Z,-0.90
2023-12-02T08:22:45.564Z,-1.00
2023-12-02T08:25:12.430Z,-1.10
2023-12-02T08:27:39.114Z,-1.10
2023-12-02T08:30:08.367Z,-1.20
2023-12-02T08:32:35.067Z,-1.10
2023-12-02T08:35:01.881Z,-1.10
2023-12-02T08:37:28.782Z,-1.10
2023-12-02T08:39:55.532Z,-1.00
2023-12-02T08:42:22.227Z,-1.00
2023-12-02T08:44:48.951Z,-0.90
2023-12-02T08:47:15.637Z,-0.90
2023-12-02T08:49:42.301Z,-0.80
2023-12-02T08:52:09.572Z,-0.80
2023-12-02T08:54:36.246Z,-0.80
2023-12-02T08:57:03.746Z,-0.80
2023-12-02T08:59:30.494Z,-0.80
2023-12-02T09:01:57.346Z,-0.80
2023-12-02T09:04:24.261Z,-0.80
2023-12-02T09:06:50.939Z,-0.80
2023-12-02T09:09:17.743Z,-0.70
2023-12-02T09:11:44.606Z,-0.70
2023-12-02T09:14:11.608Z,-0.70
2023-12-02T09:16:39.420Z,-0.60
2023-12-02T09:19:48.614Z,-0.10
2023-12-02T09:22:31.377Z,-0.20
2023-12-02T09:24:58.033Z,-0.30
2023-12-02T09:28:10.176Z,-0.30
2023-12-02T09:31:09.913Z,-0.50
2023-12-02T09:33:38.904Z,-0.50
2023-12-02T09:36:07.478Z,-0.50
2023-12-02T09:38:34.831Z,-0.50
2023-12-02T09:41:25.037Z,-0.40
2023-12-02T09:44:24.608Z,-0.30
2023-12-02T09:47:21.626Z,-0.30
2023-12-02T09:49:58.652Z,-0.30
2023-12-02T09:52:44.115Z,-0.30
2023-12-02T09:55:10.993Z,-0.30
2023-12-02T09:57:48.448Z,-0.30
2023-12-02T10:00:51.024Z,-0.30
2023-12-02T10:03:44.239Z,-0.40
2023-12-02T10:06:27.291Z,-0.40
2023-12-02T10:09:08.727Z,-0.30
2023-12-02T10:11:48.594Z,-0.30
2023-12-02T10:14:18.666Z,-0.20
2023-12-02T10:16:51.854Z,-0.20
2023-12-02T10:19:30.290Z,-0.20
2023-12-02T10:22:00.207Z,-0.10
2023-12-02T10:24:36.783Z,-0.10
2023-12-02T10:27:12.517Z,-0.10
2023-12-02T10:30:10.789Z,0.00
2023-12-02T10:33:16.193Z,0.00
2023-12-02T10:35:48.509Z,0.10
2023-12-02T10:38:32.553Z,0.10
2023-12-02T10:41:10.500Z,0.10
2023-12-02T10:43:42.306Z,0.10
2023-12-02T10:46:09.571Z,0.10
2023-12-02T10:48:37.924Z,0.00
2023-12-02T10:51:05.151Z,-0.10
2023-12-02T10:53:34.262Z,0.00
2023-12-02T10:56:06.211Z,0.10
2023-12-02T10:58:35.025Z,0.10
2023-12-02T11:01:08.985Z,0.00
2023-12-02T11:03:50.340Z,0.00
2023-12-02T11:06:32.913Z,0.00
2023-12-02T11:09:18.103Z,0.10
2023-12-02T11:12:01.085Z,0.10
2023-12-02T11:14:32.950Z,0.20
2023-12-02T11:16:59.573Z,0.20
2023-12-02T11:19:53.934Z,0.20
2023-12-02T11:22:59.777Z,0.20
2023-12-02T11:25:36.898Z,0.40
2023-12-02T11:28:11.052Z,1.10
2023-12-02T11:31:01.968Z,0.90
2023-12-02T11:33:50.212Z,0.80
2023-12-02T11:36:34.258Z,0.60
2023-12-02T11:39:10.936Z,0.60
2023-12-02T11:42:02.038Z,0.50
2023-12-02T11:44:37.992Z,0.50
2023-12-02T11:47:25.572Z,0.40
2023-12-02T11:50:05.056Z,0.30
2023-12-02T11:52:53.488Z,0.20
2023-12-02T11:55:34.435Z,0.40
2023-12-02T11:58:30.311Z,0.40
2023-12-02T12:01:19.002Z,0.40
2023-12-02T12:04:14.417Z,0.30
2023-12-02T12:06:54.238Z,0.30
2023-12-02T12:09:36.150Z,0.50
2023-12-02T12:12:07.294Z,0.60
2023-12-02T12:14:38.341Z,0.70
2023-12-02T12:17:05.705Z,0.70
2023-12-02T12:19:32.495Z,0.70
2023-12-02T12:21:59.836Z,0.70
2023-12-02T12:24:27.686Z,0.80
2023-12-02T12:26:54.806Z,1.00
2023-12-02T12:29:21.498Z,1.20
2023-12-02T12:31:48.166Z,1.30
2023-12-02T12:34:15.863Z,1.10
2023-12-02T12:36:44.429Z,1.10
2023-12-02T12:39:13.116Z,1.10
2023-12-02T12:41:40.359Z,1.00
2023-12-02T12:44:07.530Z,1.00
2023-12-02T12:46:35.861Z,0.90
2023-12-02T12:49:06.100Z,0.80
2023-12-02T12:51:34.401Z,0.70
2023-12-02T12:54:04.031Z,0.60
2023-12-02T12:56:42.906Z,0.70
2023-12-02T12:59:14.152Z,0.70
2023-12-02T13:02:12.997Z,0.70
2023-12-02T13:05:00.075Z,0.80
2023-12-02T13:07:39.660Z,0.90
2023-12-02T13:10:09.309Z,1.10
2023-12-02T13:12:39.391Z,1.10
2023-12-02T13:15:09.700Z,4.50
2023-12-02T13:17:42.669Z,7.60
2023-12-02T13:20:09.901Z,5.70
2023-12-02T13:22:36.870Z,4.20
2023-12-02T13:25:12.285Z,3.50
2023-12-02T13:27:50.752Z,3.40
2023-12-02T13:30:17.802Z,3.60
2023-12-02T13:32:47.482Z,3.40
2023-12-02T13:35:16.188Z,2.70
2023-12-02T13:38:04.561Z,2.00
2023-12-02T13:40:58.877Z,1.60
2023-12-02T13:43:37.134Z,1.30
2023-12-02T13:46:05.718Z,1.20
2023-12-02T13:49:06.154Z,1.10
2023-12-02T13:51:38.328Z,1.20
2023-12-02T13:54:28.681Z,1.10
2023-12-02T13:57:16.524Z,1.10
2023-12-02T13:59:47.556Z,1.00
2023-12-02T14:02:28.326Z,1.00
2023-12-02T14:05:08.867Z,1.00
2023-12-02T14:07:49.758Z,1.00
2023-12-02T14:10:20.318Z,1.00
2023-12-02T14:13:09.344Z,0.90
2023-12-02T14:16:00.890Z,1.00
2023-12-02T14:18:47.910Z,1.10
2023-12-02T14:21:23.494Z,1.70
2023-12-02T14:24:14.368Z,1.60
2023-12-02T14:27:11.004Z,1.20
2023-12-02T14:29:53.177Z,1.00
2023-12-02T14:33:00.389Z,1.10
2023-12-02T14:35:50.240Z,1.00
2023-12-02T14:38:50.549Z,1.10
2023-12-02T14:41:37.112Z,1.00
2023-12-02T14:44:13.477Z,0.70
2023-12-02T14:46:56.674Z,0.60
2023-12-02T14:49:27.622Z,0.60
2023-12-02T14:51:57.033Z,0.60
2023-12-02T14:54:26.727Z,0.60
2023-12-02T14:56:53.852Z,0.60
2023-12-02T14:59:21.803Z,0.60
2023-12-02T15:01:52.929Z,0.60
2023-12-02T15:04:20.441Z,0.70
2023-12-02T15:06:52.134Z,0.80
2023-12-02T15:09:25.102Z,0.70
2023-12-02T15:11:59.397Z,0.60
2023-12-02T15:14:26.773Z,0.60
2023-12-02T15:17:01.187Z,0.40
2023-12-02T15:19:29.934Z,0.30
2023-12-02T15:22:17.393Z,0.40
2023-12-02T15:24:44.280Z,0.40
2023-12-02T15:27:11.165Z,0.40
2023-12-02T15:29:38.228Z,0.50
2023-12-02T15:32:05.269Z,0.50
2023-12-02T15:34:32.739Z,0.40
2023-12-02T15:37:00.221Z,0.40
2023-12-02T15:39:27.401Z,0.40
2023-12-02T15:41:54.105Z,0.30
2023-12-02T15:44:20.807Z,0.20
2023-12-02T15:46:50.607Z,0.30
2023-12-02T15:49:25.455Z,0.30
2023-12-02T15:51:53.586Z,0.30
2023-12-02T15:54:23.348Z,0.30
2023-12-02T15:56:51.948Z,0.30
2023-12-02T15:59:20.845Z,0.30
2023-12-02T16:01:52.130Z,0.50
2023-12-02T16:04:19.270Z,0.60
2023-12-02T16:06:47.789Z,0.60
2023-12-02T16:09:21.097Z,0.60
2023-12-02T16:11:48.943Z,0.70
2023-12-02T16:14:16.916Z,0.60
2023-12-02T16:16:44.718Z,0.60
2023-12-02T16:19:12.604Z,0.50
2023-12-02T16:21:41.206Z,0.60
2023-12-02T16:24:08.549Z,0.50
2023-12-02T16:26:37.103Z,0.50
2023-12-02T16:29:03.904Z,0.40
2023-12-02T16:31:31.103Z,0.50
2023-12-02T16:33:58.126Z,0.50
2023-12-02T16:36:29.157Z,0.40
2023-12-02T16:38:56.042Z,0.50
2023-12-02T16:41:22.904Z,0.60
2023-12-02T16:43:49.797Z,0.60
2023-12-02T16:46:18.335Z,0.60
2023-12-02T16:48:45.083Z,0.60
2023-12-02T16:51:11.853Z,0.50
2023-12-02T16:53:38.720Z,0.40
2023-12-02T16:56:14.851Z,0.50
2023-12-02T16:58:48.252Z,0.40
2023-12-02T17:01:28.352Z,0.30
2023-12-02T17:03:55.684Z,0.20
2023-12-02T17:06:23.188Z,0.20
2023-12-02T17:08:52.618Z,0.10
2023-12-02T17:11:22.332Z,0.20
2023-12-02T17:13:58.523Z,0.20
2023-12-02T17:16:32.492Z,0.30
2023-12-02T17:19:02.781Z,0.40
2023-12-02T17:21:32.427Z,0.40
2023-12-02T17:24:03.307Z,0.40
2023-12-02T17:26:32.776Z,0.50
2023-12-02T17:29:00.061Z,0.40
2023-12-02T17:31:27.031Z,0.40
2023-12-02T17:33:53.792Z,0.40
2023-12-02T17:36:20.776Z,0.40
2023-12-02T17:38:47.541Z,0.30
2023-12-02T17:41:14.258Z,0.30
2023-12-02T17:43:41.003Z,0.30
2023-12-02T17:46:07.759Z,0.20
2023-12-02T17:48:34.516Z,0.20
2023-12-02T17:51:01.269Z,0.30
2023-12-02T17:53:28.052Z,0.30
2023-12-02T17:55:54.746Z,0.30
2023-12-02T17:58:21.588Z,0.40
2023-12-02T18:00:49.219Z,0.30
2023-12-02T18:03:15.994Z,0.30
2023-12-02T18:05:43.291Z,0.40
2023-12-02T18:08:10.738Z,0.40
2023-12-02T18:10:37.400Z,0.50
2023-12-02T18:13:04.107Z,0.50
2023-12-02T18:15:32.541Z,0.50
2023-12-02T18:17:59.371Z,0.50
2023-12-02T18:20:26.320Z,0.50
2023-12-02T18:22:53.172Z,0.30
2023-12-02T18:25:19.871Z,0.30
2023-12-02T18:27:46.768Z,0.30
2023-12-02T18:30:13.788Z,0.40
2023-12-02T18:32:40.489Z,0.30
2023-12-02T18:35:07.813Z,0.40
2023-12-02T18:37:34.543Z,0.30
2023-12-02T18:40:01.557Z,0.40
2023-12-02T18:42:28.387Z,0.30
2023-12-02T18:44:55.195Z,0.40
2023-12-02T18:47:21.936Z,0.30
2023-12-02T18:49:49.624Z,0.30
2023-12-02T18:52:16.479Z,0.30
2023-12-02T18:54:43.205Z,0.30
2023-12-02T18:57:10.109Z,0.30
2023-12-02T18:59:37.496Z,0.30
2023-12-02T19:02:05.023Z,0.30
2023-12-02T19:04:31.840Z,0.20
2023-12-02T19:06:58.567Z,0.20
2023-12-02T19:09:25.298Z,0.20
2023-12-02T19:11:52.371Z,0.30
2023-12-02T19:14:19.153Z,0.30
2023-12-02T19:16:46.989Z,0.30
2023-12-02T19:19:13.788Z,0.30
2023-12-02T19:21:40.690Z,0.40
2023-12-02T19:24:07.983Z,0.30
2023-12-02T19:26:35.348Z,0.30
2023-12-02T19:29:02.316Z,0.30
2023-12-02T19:31:29.046Z,0.30
2023-12-02T19:33:56.288Z,0.30
2023-12-02T19:36:23.107Z,0.30
2023-12-02T19:38:49.807Z,0.20
2023-12-02T19:41:16.491Z,0.30
2023-12-02T19:43:43.164Z,0.20
2023-12-02T19:46:09.853Z,0.30
2023-12-02T19:48:36.597Z,0.30
2023-12-02T19:51:06.242Z,0.30
2023-12-02T19:53:34.036Z,0.30
2023-12-02T19:56:00.832Z,0.30
2023-12-02T19:58:27.522Z,0.30
2023-12-02T20:00:54.235Z,0.40
2023-12-02T20:03:21.123Z,0.40
2023-12-02T20:05:48.196Z,0.50
2023-12-02T20:08:15.216Z,0.40
2023-12-02T20:10:41.925Z,0.40
2023-12-02T20:13:08.747Z,0.50
2023-12-02T20:15:35.539Z,0.50
2023-12-02T20:18:02.283Z,0.50
2023-12-02T20:20:29.113Z,0.50
2023-12-02T20:22:55.791Z,0.60
2023-12-02T20:25:22.475Z,0.50
2023-12-02T20:27:49.301Z,0.40
2023-12-02T20:30:17.062Z,0.50
2023-12-02T20:32:43.904Z,0.40
2023-12-02T20:35:10.647Z,0.40
2023-12-02T20:37:37.455Z,0.50
2023-12-02T20:40:05.137Z,0.50
2023-12-02T20:42:31.911Z,0.50
2023-12-02T20:44:58.584Z,0.60
2023-12-02T20:47:25.413Z,0.60
2023-12-02T20:49:52.148Z,0.60
2023-12-02T20:52:18.997Z,0.50
2023-12-02T20:54:45.744Z,0.50
2023-12-02T20:57:12.818Z,0.50
2023-12-02T20:59:39.516Z,0.30
2023-12-02T21:02:06.716Z,0.50
2023-12-02T21:04:34.109Z,0.50
2023-12-02T21:07:00.841Z,0.60
2023-12-02T21:09:27.617Z,0.50
2023-12-02T21:11:54.336Z,0.50
2023-12-02T21:14:21.621Z,0.50
2023-12-02T21:16:48.297Z,0.50
2023-12-02T21:19:17.845Z,0.50
2023-12-02T21:21:44.644Z,0.40
2023-12-02T21:24:11.437Z,0.40
2023-12-02T21:26:38.103Z,0.40
2023-12-02T21:29:04.954Z,0.40
2023-12-02T21:31:34.921Z,0.30
2023-12-02T21:34:01.770Z,0.40
2023-12-02T21:36:28.626Z,0.30
2023-12-02T21:38:55.411Z,0.30
2023-12-02T21:41:22.143Z,0.40
2023-12-02T21:43:49.309Z,0.50
2023-12-02T21:46:28.503Z,0.40
2023-12-02T21:49:00.412Z,0.50
2023-12-02T21:51:33.781Z,0.50
2023-12-02T21:54:09.032Z,0.60
2023-12-02T21:56:44.145Z,0.70
2023-12-02T21:59:14.542Z,0.70
2023-12-02T22:01:42.967Z,0.70
2023-12-02T22:04:11.278Z,0.70
2023-12-02T22:06:50.712Z,0.70
2023-12-02T22:09:29.584Z,0.70
2023-12-02T22:11:57.498Z,0.70
2023-12-02T22:14:25.875Z,0.70
2023-12-02T22:17:00.718Z,0.60
2023-12-02T22:19:28.218Z,0.60
2023-12-02T22:21:55.913Z,0.60
2023-12-02T22:24:23.939Z,0.60
2023-12-02T22:26:51.352Z,0.60
2023-12-02T22:29:29.800Z,0.60
2023-12-02T22:31:58.996Z,0.60
2023-12-02T22:34:25.953Z,0.50
2023-12-02T22:36:52.959Z,0.60
2023-12-02T22:39:22.273Z,0.60
2023-12-02T22:41:56.881Z,0.50
2023-12-02T22:44:24.958Z,0.60
2023-12-02T22:46:56.754Z,0.60
2023-12-02T22:49:25.023Z,0.60
2023-12-02T22:51:53.818Z,0.60
2023-12-02T22:54:37.773Z,0.60
2023-12-02T22:57:05.662Z,0.70
2023-12-02T22:59:32.442Z,0.60
2023-12-02T23:01:59.419Z,0.40
2023-12-02T23:04:37.174Z,0.40
2023-12-02T23:07:25.012Z,0.30
2023-12-02T23:09:55.679Z,0.30
2023-12-02T23:12:30.956Z,0.20
2023-12-02T23:15:21.001Z,0.30
2023-12-02T23:17:48.329Z,0.20
2023-12-02T23:20:29.454Z,0.20
2023-12-02T23:22:56.523Z,0.20
2023-12-02T23:25:25.993Z,0.30
2023-12-02T23:27:53.172Z,0.30
2023-12-02T23:30:23.168Z,0.40
2023-12-02T23:32:51.960Z,0.40
2023-12-02T23:35:21.662Z,0.40
2023-12-02T23:37:50.635Z,0.40
2023-12-02T23:40:28.951Z,0.40
2023-12-02T23:42:59.830Z,0.40
2023-12-02T23:45:26.937Z,0.30
2023-12-02T23:47:54.040Z,0.40
2023-12-02T23:50:21.656Z,0.40
2023-12-02T23:52:49.176Z,0.40
2023-12-02T23:55:16.362Z,0.50
2023-12-02T23:57:45.664Z,0.60
